createdAt,value
2019-03-10T00:00:17.370Z,-0.20
2019-03-10T00:02:44.557Z,-0.30
2019-03-10T00:05:11.047Z,-0.30
2019-03-10T00:07:37.609Z,-0.30
2019-03-10T00:10:08.448Z,-0.10
2019-03-10T00:12:35.175Z,-0.10
2019-03-10T00:15:01.818Z,-0.20
2019-03-10T00:17:28.214Z,-0.10
2019-03-10T00:19:54.763Z,-0.30
2019-03-10T00:22:21.267Z,-0.40
2019-03-10T00:24:47.779Z,-0.30
2019-03-10T00:27:14.386Z,-0.40
2019-03-10T00:29:40.960Z,-0.30
2019-03-10T00:32:07.597Z,-0.30
2019-03-10T00:34:34.206Z,-0.30
2019-03-10T00:37:00.581Z,-0.30
2019-03-10T00:39:39.821Z,-0.40
2019-03-10T00:42:09.992Z,-0.40
2019-03-10T00:45:14.710Z,-0.30
2019-03-10T00:48:02.302Z,-0.40
2019-03-10T00:50:52.152Z,-0.50
2019-03-10T00:53:18.663Z,-0.40
2019-03-10T00:55:45.113Z,-0.50
2019-03-10T00:58:11.707Z,-0.50
2019-03-10T01:00:38.327Z,-0.50
2019-03-10T01:03:04.886Z,-0.60
2019-03-10T01:05:31.467Z,-0.60
2019-03-10T01:07:58.059Z,-0.50
2019-03-10T01:10:24.569Z,-0.40
2019-03-10T01:12:51.398Z,-0.50
2019-03-10T01:15:18.770Z,-0.50
2019-03-10T01:17:46.702Z,-0.40
2019-03-10T01:20:13.559Z,-0.50
2019-03-10T01:22:40.046Z,-0.50
2019-03-10T01:25:08.872Z,-0.50
2019-03-10T01:27:35.607Z,-0.60
2019-03-10T01:30:04.066Z,-0.60
2019-03-10T01:32:49.392Z,-0.60
2019-03-10T01:35:18.952Z,-0.60
2019-03-10T01:37:45.803Z,-0.60
2019-03-10T01:40:12.280Z,-0.60
2019-03-10T01:42:38.808Z,-0.60
2019-03-10T01:45:08.856Z,-0.60
2019-03-10T01:47:35.484Z,-0.70
2019-03-10T01:50:02.315Z,-0.60
2019-03-10T01:52:28.888Z,-0.70
2019-03-10T01:54:55.567Z,-0.70
2019-03-10T01:57:22.113Z,-0.60
2019-03-10T01:59:48.758Z,-0.70
2019-03-10T02:02:15.211Z,-0.60
2019-03-10T02:04:41.874Z,-0.70
2019-03-10T02:07:08.362Z,-0.60
2019-03-10T02:09:34.980Z,-0.70
2019-03-10T02:12:01.586Z,-0.70
2019-03-10T02:14:28.021Z,-0.80
2019-03-10T02:16:54.495Z,-0.70
2019-03-10T02:19:20.928Z,-0.70
2019-03-10T02:21:47.404Z,-0.70
2019-03-10T02:24:23.489Z,-0.70
2019-03-10T02:26:42.103Z,-0.70
2019-03-10T02:29:08.507Z,-0.70
2019-03-10T02:31:36.029Z,-0.70
2019-03-10T02:34:02.518Z,-0.70
2019-03-10T02:36:29.076Z,-0.80
2019-03-10T02:38:55.586Z,-0.80
2019-03-10T02:41:22.054Z,-0.70
2019-03-10T02:43:49.807Z,-0.70
2019-03-10T02:46:16.315Z,-0.70
2019-03-10T02:48:42.835Z,-0.70
2019-03-10T02:51:09.433Z,-0.70
2019-03-10T02:53:36.103Z,-0.70
2019-03-10T02:56:02.613Z,-0.70
2019-03-10T02:58:29.169Z,-0.70
2019-03-10T03:00:55.760Z,-0.70
2019-03-10T03:03:22.137Z,-0.70
2019-03-10T03:05:48.745Z,-0.70
2019-03-10T03:08:16.965Z,-0.70
2019-03-10T03:10:43.337Z,-0.70
2019-03-10T03:13:09.922Z,-0.70
2019-03-10T03:15:36.700Z,-0.70
2019-03-10T03:18:03.170Z,-0.70
2019-03-10T03:20:29.639Z,-0.70
2019-03-10T03:22:56.053Z,-0.70
2019-03-10T03:25:22.572Z,-0.70
2019-03-10T03:27:49.413Z,-0.70
2019-03-10T03:30:17.409Z,-0.70
2019-03-10T03:32:43.871Z,-0.70
2019-03-10T03:35:45.597Z,-0.70
2019-03-10T03:38:12.095Z,-0.70
2019-03-10T03:40:42.261Z,-0.80
2019-03-10T03:43:08.901Z,-0.80
2019-03-10T03:45:35.503Z,-0.80
2019-03-10T03:48:02.090Z,-0.80
2019-03-10T03:50:28.702Z,-0.90
2019-03-10T03:52:56.216Z,-0.90
2019-03-10T03:55:22.758Z,-0.90
2019-03-10T03:57:49.322Z,-0.90
2019-03-10T04:00:15.813Z,-0.90
2019-03-10T04:02:42.206Z,-0.90
2019-03-10T04:05:09.195Z,-1.00
2019-03-10T04:07:35.736Z,-0.90
2019-03-10T04:10:02.651Z,-1.00
2019-03-10T04:12:29.121Z,-1.10
2019-03-10T04:14:55.487Z,-1.10
2019-03-10T04:17:21.995Z,-1.10
2019-03-10T04:19:48.500Z,-1.10
2019-03-10T04:22:15.118Z,-1.20
2019-03-10T04:24:41.718Z,-1.20
2019-03-10T04:27:08.222Z,-1.20
2019-03-10T04:29:34.804Z,-1.20
2019-03-10T04:32:01.286Z,-1.20
2019-03-10T04:34:27.695Z,-1.20
2019-03-10T04:36:54.287Z,-1.30
2019-03-10T04:39:20.790Z,-1.30
2019-03-10T04:41:47.226Z,-1.40
2019-03-10T04:44:13.631Z,-1.40
2019-03-10T04:46:40.175Z,-1.40
2019-03-10T04:49:07.890Z,-1.40
2019-03-10T04:51:34.407Z,-1.40
2019-03-10T04:54:00.976Z,-1.40
2019-03-10T04:56:29.697Z,-1.50
2019-03-10T04:58:56.020Z,-1.50
2019-03-10T05:01:22.838Z,-1.60
2019-03-10T05:03:49.248Z,-1.60
2019-03-10T05:06:15.772Z,-1.60
2019-03-10T05:08:42.167Z,-1.70
2019-03-10T05:11:08.683Z,-1.70
2019-03-10T05:13:35.079Z,-1.70
2019-03-10T05:16:01.637Z,-1.80
2019-03-10T05:18:28.068Z,-1.70
2019-03-10T05:20:56.532Z,-1.80
2019-03-10T05:23:32.622Z,-1.80
2019-03-10T05:25:59.139Z,-1.80
2019-03-10T05:28:26.544Z,-1.90
2019-03-10T05:30:53.010Z,-1.80
2019-03-10T05:33:19.895Z,-1.80
2019-03-10T05:35:46.454Z,-1.80
2019-03-10T05:38:12.853Z,-1.80
2019-03-10T05:40:39.231Z,-1.90
2019-03-10T05:43:05.686Z,-1.90
2019-03-10T05:45:32.185Z,-1.90
2019-03-10T05:47:58.566Z,-1.90
2019-03-10T05:50:25.093Z,-1.90
2019-03-10T05:52:51.463Z,-1.80
2019-03-10T05:55:17.843Z,-1.80
2019-03-10T05:57:44.278Z,-1.80
2019-03-10T06:00:10.867Z,-1.80
2019-03-10T06:02:37.413Z,-1.80
2019-03-10T06:05:06.036Z,-1.80
2019-03-10T06:07:32.638Z,-1.80
2019-03-10T06:09:59.129Z,-1.90
2019-03-10T06:12:25.594Z,-1.90
2019-03-10T06:14:52.102Z,-2.00
2019-03-10T06:17:18.347Z,-1.80
2019-03-10T06:19:44.832Z,-1.50
2019-03-10T06:22:11.213Z,-1.40
2019-03-10T06:24:37.734Z,-1.10
2019-03-10T06:27:06.666Z,-1.20
2019-03-10T06:29:33.050Z,-1.20
2019-03-10T06:31:59.431Z,-1.10
2019-03-10T06:34:25.696Z,-0.80
2019-03-10T06:36:52.148Z,-0.10
2019-03-10T06:39:18.803Z,0.80
2019-03-10T06:41:45.128Z,1.30
2019-03-10T06:44:11.647Z,0.90
2019-03-10T06:46:38.052Z,0.40
2019-03-10T06:49:04.417Z,-0.10
2019-03-10T06:51:30.959Z,-0.40
2019-03-10T06:53:57.470Z,-0.60
2019-03-10T06:56:23.868Z,-0.50
2019-03-10T06:58:50.225Z,-0.30
2019-03-10T07:01:16.492Z,0.90
2019-03-10T07:03:42.897Z,2.00
2019-03-10T07:06:09.413Z,3.30
2019-03-10T07:08:35.806Z,3.90
2019-03-10T07:11:02.405Z,4.80
2019-03-10T07:13:28.662Z,5.60
2019-03-10T07:15:55.053Z,6.00
2019-03-10T07:18:21.523Z,6.10
2019-03-10T07:20:48.047Z,6.60
2019-03-10T07:23:16.058Z,7.30
2019-03-10T07:25:42.452Z,7.60
2019-03-10T07:28:10.754Z,7.50
2019-03-10T07:30:42.013Z,6.90
2019-03-10T07:33:10.213Z,7.00
2019-03-10T07:35:54.781Z,7.10
2019-03-10T07:38:23.159Z,7.10
2019-03-10T07:40:51.483Z,7.50
2019-03-10T07:43:19.904Z,7.20
2019-03-10T07:45:50.770Z,7.50
2019-03-10T07:48:19.047Z,6.70
2019-03-10T07:50:56.010Z,5.50
2019-03-10T07:53:42.026Z,3.60
2019-03-10T07:56:22.177Z,2.60
2019-03-10T07:59:02.127Z,1.50
2019-03-10T08:01:36.067Z,1.00
2019-03-10T08:04:09.037Z,0.30
2019-03-10T08:06:49.239Z,0.00
2019-03-10T08:09:17.621Z,-0.30
2019-03-10T08:11:57.955Z,-0.50
2019-03-10T08:14:40.982Z,-0.70
2019-03-10T08:17:09.357Z,-0.80
2019-03-10T08:19:49.928Z,-1.10
2019-03-10T08:22:18.191Z,-1.20
2019-03-10T08:25:02.982Z,-1.40
2019-03-10T08:27:40.085Z,-1.50
2019-03-10T08:30:09.895Z,-1.50
2019-03-10T08:32:54.708Z,-1.50
2019-03-10T08:35:25.631Z,-1.50
2019-03-10T08:37:56.855Z,-1.50
2019-03-10T08:40:40.147Z,-1.50
2019-03-10T08:43:23.174Z,-1.50
2019-03-10T08:45:57.408Z,-1.60
2019-03-10T08:48:25.697Z,-1.70
2019-03-10T08:50:59.715Z,-1.80
2019-03-10T08:53:46.216Z,-1.70
2019-03-10T08:56:29.331Z,-1.70
2019-03-10T08:59:09.362Z,-1.70
2019-03-10T09:01:54.321Z,-1.60
2019-03-10T09:04:22.784Z,-1.60
2019-03-10T09:06:51.215Z,-1.60
2019-03-10T09:09:35.834Z,-1.70
2019-03-10T09:12:20.398Z,-1.80
2019-03-10T09:15:05.056Z,-1.80
2019-03-10T09:17:49.646Z,-1.80
2019-03-10T09:20:18.101Z,-1.80
2019-03-10T09:23:01.208Z,-1.80
2019-03-10T09:25:29.605Z,-1.70
2019-03-10T09:28:05.891Z,-1.60
2019-03-10T09:30:46.313Z,-1.60
2019-03-10T09:33:21.015Z,-1.50
2019-03-10T09:36:01.421Z,-1.50
2019-03-10T09:38:30.598Z,-1.40
2019-03-10T09:41:15.402Z,-1.50
2019-03-10T09:43:55.578Z,-1.50
2019-03-10T09:46:26.741Z,-1.50
2019-03-10T09:49:01.244Z,-1.50
2019-03-10T09:51:38.603Z,-1.50
2019-03-10T09:54:10.983Z,-1.40
2019-03-10T09:56:39.239Z,-1.40
2019-03-10T09:59:07.612Z,-1.40
2019-03-10T10:01:38.789Z,-1.40
2019-03-10T10:04:07.251Z,-1.30
2019-03-10T10:06:50.432Z,-1.20
2019-03-10T10:09:18.758Z,-1.20
2019-03-10T10:11:47.110Z,-1.20
2019-03-10T10:14:15.531Z,-1.20
2019-03-10T10:16:52.800Z,-1.10
2019-03-10T10:19:23.761Z,-1.00
2019-03-10T10:21:57.985Z,-1.00
2019-03-10T10:24:28.191Z,-1.10
2019-03-10T10:26:59.529Z,-1.00
2019-03-10T10:29:27.959Z,-1.00
2019-03-10T10:31:58.824Z,-1.00
2019-03-10T10:34:32.851Z,-1.00
2019-03-10T10:37:09.846Z,-1.00
2019-03-10T10:39:49.922Z,-0.90
2019-03-10T10:42:21.253Z,-0.80
2019-03-10T10:44:55.505Z,-0.90
2019-03-10T10:47:29.885Z,-1.00
2019-03-10T10:49:58.092Z,-0.90
2019-03-10T10:52:26.362Z,-0.90
2019-03-10T10:55:03.288Z,-0.90
2019-03-10T10:57:48.095Z,-1.00
2019-03-10T11:00:19.988Z,-1.00
2019-03-10T11:02:48.364Z,-0.90
2019-03-10T11:05:25.284Z,-0.90
2019-03-10T11:07:59.617Z,-0.80
2019-03-10T11:10:45.753Z,-0.70
2019-03-10T11:13:14.042Z,-0.70
2019-03-10T11:15:58.830Z,-0.60
2019-03-10T11:18:42.388Z,-0.60
2019-03-10T11:21:10.753Z,-0.60
2019-03-10T11:23:44.833Z,-0.50
2019-03-10T11:26:19.164Z,-0.50
2019-03-10T11:28:47.471Z,-0.50
2019-03-10T11:31:30.629Z,-0.50
2019-03-10T11:33:59.089Z,-0.60
2019-03-10T11:36:27.349Z,-0.70
2019-03-10T11:39:10.675Z,-0.70
2019-03-10T11:41:48.270Z,-0.60
2019-03-10T11:44:20.633Z,-0.70
2019-03-10T11:46:48.972Z,-0.60
2019-03-10T11:49:35.111Z,-0.60
2019-03-10T11:52:10.584Z,-0.60
2019-03-10T11:54:55.405Z,-0.60
2019-03-10T11:57:38.505Z,-0.50
2019-03-10T12:00:28.220Z,-0.60
2019-03-10T12:03:02.190Z,-0.60
2019-03-10T12:05:45.573Z,-0.50
2019-03-10T12:08:30.404Z,-0.50
2019-03-10T12:10:56.837Z,-0.40
2019-03-10T12:13:23.294Z,-0.20
2019-03-10T12:15:49.798Z,-0.20
2019-03-10T12:18:16.232Z,-0.10
2019-03-10T12:20:42.728Z,-0.10
2019-03-10T12:23:09.232Z,0.00
2019-03-10T12:25:35.723Z,-0.10
2019-03-10T12:28:02.215Z,-0.10
2019-03-10T12:30:29.980Z,-0.10
2019-03-10T12:32:56.476Z,0.00
2019-03-10T12:35:33.546Z,0.20
2019-03-10T12:37:51.621Z,0.40
2019-03-10T12:40:18.087Z,0.60
2019-03-10T12:42:44.757Z,0.70
2019-03-10T12:45:13.772Z,0.70
2019-03-10T12:47:40.347Z,0.60
2019-03-10T12:50:09.563Z,0.80
2019-03-10T12:52:37.062Z,1.10
2019-03-10T12:55:06.145Z,1.30
2019-03-10T12:57:32.699Z,1.30
2019-03-10T12:59:59.265Z,1.40
2019-03-10T13:02:25.918Z,1.80
2019-03-10T13:04:52.742Z,2.00
2019-03-10T13:07:19.079Z,2.10
2019-03-10T13:09:45.648Z,2.10
2019-03-10T13:12:12.211Z,2.80
2019-03-10T13:14:38.669Z,3.50
2019-03-10T13:17:05.291Z,4.00
2019-03-10T13:19:31.801Z,4.00
2019-03-10T13:21:58.420Z,3.50
2019-03-10T13:24:26.985Z,2.90
2019-03-10T13:26:53.402Z,2.40
2019-03-10T13:29:20.001Z,2.10
2019-03-10T13:31:46.658Z,1.90
2019-03-10T13:34:13.012Z,1.80
2019-03-10T13:36:39.726Z,1.70
2019-03-10T13:39:06.315Z,1.40
2019-03-10T13:41:33.029Z,1.20
2019-03-10T13:43:59.597Z,1.10
2019-03-10T13:46:26.316Z,1.10
2019-03-10T13:48:52.832Z,1.10
2019-03-10T13:51:19.402Z,0.90
2019-03-10T13:53:47.147Z,0.80
2019-03-10T13:56:13.580Z,0.80
2019-03-10T13:58:40.334Z,0.70
2019-03-10T14:01:06.925Z,0.60
2019-03-10T14:03:34.355Z,0.60
2019-03-10T14:06:01.923Z,0.70
2019-03-10T14:08:28.406Z,0.70
2019-03-10T14:10:55.013Z,0.60
2019-03-10T14:13:21.532Z,0.60
2019-03-10T14:15:48.124Z,0.60
2019-03-10T14:18:14.735Z,0.50
2019-03-10T14:20:41.482Z,0.40
2019-03-10T14:23:07.818Z,0.30
2019-03-10T14:25:34.366Z,0.30
2019-03-10T14:28:00.845Z,0.20
2019-03-10T14:30:27.318Z,0.20
2019-03-10T14:32:53.840Z,0.10
2019-03-10T14:35:20.305Z,0.00
2019-03-10T14:37:46.843Z,-0.10
2019-03-10T14:40:17.709Z,-0.10
2019-03-10T14:42:44.303Z,-0.10
2019-03-10T14:45:16.133Z,-0.10
2019-03-10T14:47:42.646Z,-0.10
2019-03-10T14:50:10.949Z,-0.10
2019-03-10T14:52:37.559Z,-0.10
2019-03-10T14:55:10.043Z,-0.10
2019-03-10T14:57:36.461Z,-0.10
2019-03-10T15:00:10.250Z,-0.10
2019-03-10T15:02:36.705Z,-0.10
2019-03-10T15:05:04.932Z,-0.20
2019-03-10T15:07:32.682Z,-0.20
2019-03-10T15:09:59.157Z,-0.20
2019-03-10T15:12:25.563Z,-0.20
2019-03-10T15:14:52.222Z,-0.20
2019-03-10T15:17:18.711Z,-0.10
2019-03-10T15:19:45.278Z,0.00
2019-03-10T15:22:11.621Z,0.00
2019-03-10T15:24:38.294Z,-0.10
2019-03-10T15:27:06.726Z,-0.20
2019-03-10T15:29:33.264Z,-0.20
2019-03-10T15:31:59.849Z,-0.20
2019-03-10T15:34:28.162Z,-0.20
2019-03-10T15:36:54.739Z,-0.30
2019-03-10T15:39:21.234Z,-0.20
2019-03-10T15:41:47.718Z,-0.20
2019-03-10T15:44:14.214Z,-0.20
2019-03-10T15:46:40.745Z,-0.20
2019-03-10T15:49:07.134Z,-0.20
2019-03-10T15:51:33.626Z,-0.30
2019-03-10T15:54:00.158Z,-0.30
2019-03-10T15:56:26.759Z,-0.40
2019-03-10T15:58:53.258Z,-0.40
2019-03-10T16:01:19.890Z,-0.40
2019-03-10T16:03:46.187Z,-0.50
2019-03-10T16:06:12.685Z,-0.50
2019-03-10T16:08:39.287Z,-0.50
2019-03-10T16:11:05.673Z,-0.60
2019-03-10T16:13:32.147Z,-0.60
2019-03-10T16:16:02.108Z,-0.60
2019-03-10T16:18:28.638Z,-0.60
2019-03-10T16:20:55.212Z,-0.60
2019-03-10T16:23:21.665Z,-0.70
2019-03-10T16:25:48.122Z,-0.70
2019-03-10T16:28:14.658Z,-0.70
2019-03-10T16:30:41.209Z,-0.80
2019-03-10T16:33:07.700Z,-0.80
2019-03-10T16:35:34.146Z,-0.80
2019-03-10T16:38:00.634Z,-0.80
2019-03-10T16:40:30.624Z,-0.80
2019-03-10T16:42:57.379Z,-0.80
2019-03-10T16:45:25.075Z,-0.80
2019-03-10T16:47:51.817Z,-0.90
2019-03-10T16:50:19.588Z,-0.90
2019-03-10T16:52:46.207Z,-0.90
2019-03-10T16:55:15.576Z,-0.90
2019-03-10T16:57:43.253Z,-0.90
2019-03-10T17:00:10.573Z,-1.00
2019-03-10T17:02:37.070Z,-1.00
2019-03-10T17:05:09.942Z,-1.10
2019-03-10T17:07:36.570Z,-1.10
2019-03-10T17:10:06.579Z,-1.10
2019-03-10T17:12:33.078Z,-1.10
2019-03-10T17:14:59.662Z,-1.20
2019-03-10T17:17:26.283Z,-1.20
2019-03-10T17:19:52.693Z,-1.20
2019-03-10T17:22:19.111Z,-1.20
2019-03-10T17:24:45.666Z,-1.30
2019-03-10T17:27:12.084Z,-1.30
2019-03-10T17:29:38.781Z,-1.30
2019-03-10T17:32:05.064Z,-1.40
2019-03-10T17:34:31.548Z,-1.40
2019-03-10T17:36:59.038Z,-1.40
2019-03-10T17:39:25.698Z,-1.40
2019-03-10T17:41:52.148Z,-1.40
2019-03-10T17:44:18.638Z,-1.40
2019-03-10T17:46:45.138Z,-1.40
2019-03-10T17:49:13.503Z,-1.40
2019-03-10T17:51:39.859Z,-1.40
2019-03-10T17:54:06.282Z,-1.50
2019-03-10T17:56:32.837Z,-1.50
2019-03-10T17:58:59.659Z,-1.50
2019-03-10T18:01:26.325Z,-1.50
2019-03-10T18:03:53.050Z,-1.60
2019-03-10T18:06:19.669Z,-1.60
2019-03-10T18:08:46.251Z,-1.60
2019-03-10T18:11:12.863Z,-1.60
2019-03-10T18:13:39.441Z,-1.60
2019-03-10T18:16:05.936Z,-1.70
2019-03-10T18:18:32.379Z,-1.60
2019-03-10T18:20:58.765Z,-1.70
2019-03-10T18:23:25.241Z,-1.70
2019-03-10T18:25:51.679Z,-1.70
2019-03-10T18:28:18.166Z,-1.70
2019-03-10T18:30:44.727Z,-1.70
2019-03-10T18:33:11.402Z,-1.70
2019-03-10T18:35:39.777Z,-1.70
2019-03-10T18:38:06.350Z,-1.70
2019-03-10T18:40:32.826Z,-1.70
2019-03-10T18:43:03.127Z,-1.60
2019-03-10T18:45:31.242Z,-1.70
2019-03-10T18:47:57.670Z,-1.70
2019-03-10T18:50:25.953Z,-1.70
2019-03-10T18:52:52.437Z,-1.80
2019-03-10T18:55:19.121Z,-1.80
2019-03-10T18:57:45.754Z,-1.70
2019-03-10T19:00:27.926Z,-1.90
2019-03-10T19:02:54.451Z,-2.00
2019-03-10T19:05:21.104Z,-2.00
2019-03-10T19:07:47.605Z,-2.00
2019-03-10T19:10:14.391Z,-2.00
2019-03-10T19:12:40.874Z,-2.00
2019-03-10T19:15:24.813Z,-2.10
2019-03-10T19:17:51.184Z,-2.20
2019-03-10T19:20:17.708Z,-2.20
2019-03-10T19:22:44.262Z,-2.20
2019-03-10T19:25:12.348Z,-2.10
2019-03-10T19:27:38.863Z,-2.10
2019-03-10T19:30:11.888Z,-2.10
2019-03-10T19:32:38.550Z,-2.10
